Time,TemperatureF,DewpointF,PressureIn,WindDirection,WindDirectionDegrees,WindSpeedMPH,WindSpeedGustMPH,Humidity,HourlyPrecipIn,Conditions,Clouds,dailyrainin,SoftwareType,DateUTC
2013-05-22 00:01:00,68.2,63.5,29.85,WNW,297,0.0,0.0,85,0.00,,---,0.00,VWS V14.01,2013-05-22 04:01:00,
2013-05-22 00:06:00,68.1,63.4,29.85,WNW,297,0.0,0.0,85,0.00,,---,0.00,VWS V14.01,2013-05-22 04:06:00,
2013-05-22 00:11:00,68.0,63.7,29.85,WNW,297,0.0,0.0,86,0.00,,---,0.00,VWS V14.01,2013-05-22 04:11:00,
2013-05-22 00:16:00,67.9,63.6,29.85,WNW,297,0.0,0.0,86,0.00,,---,0.00,VWS V14.01,2013-05-22 04:16:00,
2013-05-22 00:21:00,67.9,63.6,29.85,WNW,297,0.0,0.0,86,0.00,,---,0.00,VWS V14.01,2013-05-22 04:21:00,
2013-05-22 00:26:00,67.7,63.7,29.85,WNW,297,0.0,0.0,87,0.00,,---,0.00,VWS V14.01,2013-05-22 04:26:00,
2013-05-22 00:31:00,67.6,63.6,29.85,WNW,297,0.0,0.0,87,0.00,,---,0.00,VWS V14.01,2013-05-22 04:31:00,
2013-05-22 00:36:00,67.5,63.5,29.85,WNW,297,0.0,0.0,87,0.00,,---,0.00,VWS V14.01,2013-05-22 04:36:00,
2013-05-22 00:41:00,67.3,63.6,29.85,WNW,297,0.0,0.0,88,0.00,,---,0.00,VWS V14.01,2013-05-22 04:41:00,
2013-05-22 00:46:00,67.1,63.4,29.85,WNW,297,0.0,0.0,88,0.00,,---,0.00,VWS V14.01,2013-05-22 04:46:00,
2013-05-22 00:51:00,66.9,63.2,29.85,WNW,297,0.0,0.0,88,0.00,,---,0.00,VWS V14.01,2013-05-22 04:51:00,
2013-05-22 00:56:00,66.8,63.5,29.85,WNW,297,0.0,0.0,89,0.00,,---,0.00,VWS V14.01,2013-05-22 04:56:00,
2013-05-22 01:01:00,66.7,63.4,29.85,WNW,297,0.0,0.0,89,0.00,,---,0.00,VWS V14.01,2013-05-22 05:01:00,
2013-05-22 01:06:00,66.5,63.2,29.86,WNW,297,0.0,0.0,89,0.00,,---,0.00,VWS V14.01,2013-05-22 05:06:00,
2013-05-22 01:11:00,66.4,63.1,29.86,WNW,297,0.0,0.0,89,0.00,,---,0.00,VWS V14.01,2013-05-22 05:11:00,
2013-05-22 01:16:00,66.4,63.4,29.86,WNW,297,0.0,0.0,90,0.00,,---,0.00,VWS V14.01,2013-05-22 05:16:00,
2013-05-22 01:21:00,66.4,63.4,29.86,WNW,297,0.0,1.0,90,0.00,,---,0.00,VWS V14.01,2013-05-22 05:21:00,
2013-05-22 01:26:00,66.4,63.4,29.85,WNW,297,0.0,1.0,90,0.00,,---,0.00,VWS V14.01,2013-05-22 05:26:00,
2013-05-22 01:31:00,66.5,63.5,29.85,WNW,297,0.0,0.0,90,0.00,,---,0.00,VWS V14.01,2013-05-22 05:31:00,
2013-05-22 01:36:00,66.5,63.2,29.85,WNW,297,0.0,0.0,89,0.00,,---,0.00,VWS V14.01,2013-05-22 05:36:00,
2013-05-22 01:41:00,66.5,63.2,29.85,NW,312,4.0,6.0,89,0.00,,---,0.00,VWS V14.01,2013-05-22 05:41:00,
2013-05-22 01:46:00,66.5,63.5,29.85,NW,308,1.0,1.0,90,0.00,,---,0.00,VWS V14.01,2013-05-22 05:46:00,
2013-05-22 01:51:00,66.3,63.3,29.84,NW,308,0.0,0.0,90,0.00,,---,0.00,VWS V14.01,2013-05-22 05:51:00,
2013-05-22 01:56:00,66.0,63.0,29.84,NW,308,0.0,0.0,90,0.00,,---,0.00,VWS V14.01,2013-05-22 05:56:00,
2013-05-22 02:01:00,65.9,62.9,29.85,NW,308,0.0,0.0,90,0.00,,---,0.00,VWS V14.01,2013-05-22 06:01:00,
2013-05-22 02:06:00,65.8,63.1,29.84,NW,308,0.0,0.0,91,0.00,,---,0.00,VWS V14.01,2013-05-22 06:06:00,
2013-05-22 02:11:00,65.8,63.1,29.84,NW,308,0.0,0.0,91,0.00,,---,0.00,VWS V14.01,2013-05-22 06:11:00,
2013-05-22 02:16:00,65.9,63.2,29.84,NW,308,1.0,1.0,91,0.00,,---,0.00,VWS V14.01,2013-05-22 06:16:00,
2013-05-22 02:21:00,66.1,63.4,29.84,WSW,254,0.0,0.0,91,0.00,,---,0.00,VWS V14.01,2013-05-22 06:21:00,
2013-05-22 02:26:00,66.4,63.4,29.84,WSW,254,1.0,1.0,90,0.00,,---,0.00,VWS V14.01,2013-05-22 06:26:00,
2013-05-22 02:31:00,66.9,63.6,29.84,WNW,292,0.0,0.0,89,0.00,,---,0.00,VWS V14.01,2013-05-22 06:31:00,
2013-05-22 02:36:00,67.2,63.2,29.83,WNW,292,0.0,0.0,87,0.00,,---,0.00,VWS V14.01,2013-05-22 06:36:00,
2013-05-22 02:41:00,67.5,63.5,29.83,WNW,292,0.0,0.0,87,0.00,,---,0.00,VWS V14.01,2013-05-22 06:41:00,
2013-05-22 02:46:00,67.5,63.2,29.83,WNW,292,0.0,0.0,86,0.00,,---,0.00,VWS V14.01,2013-05-22 06:46:00,
2013-05-22 02:51:00,67.4,63.1,29.83,WNW,292,0.0,0.0,86,0.00,,---,0.00,VWS V14.01,2013-05-22 06:51:00,
2013-05-22 02:56:00,67.3,63.0,29.83,WNW,292,0.0,0.0,86,0.00,,---,0.00,VWS V14.01,2013-05-22 06:56:00,
2013-05-22 03:01:00,67.1,63.1,29.83,WNW,292,0.0,0.0,87,0.00,,---,0.00,VWS V14.01,2013-05-22 07:01:00,
2013-05-22 03:06:00,66.8,62.8,29.83,WNW,292,0.0,0.0,87,0.00,,---,0.00,VWS V14.01,2013-05-22 07:06:00,
2013-05-22 03:11:00,66.6,62.6,29.82,WNW,292,1.0,1.0,87,0.00,,---,0.00,VWS V14.01,2013-05-22 07:11:00,
2013-05-22 03:16:00,66.4,62.7,29.82,WNW,292,0.0,1.0,88,0.00,,---,0.00,VWS V14.01,2013-05-22 07:16:00,
2013-05-22 03:21:00,66.2,62.5,29.82,WNW,292,2.0,2.0,88,0.00,,---,0.00,VWS V14.01,2013-05-22 07:21:00,
2013-05-22 03:26:00,66.0,62.3,29.82,WNW,292,1.0,1.0,88,0.00,,---,0.00,VWS V14.01,2013-05-22 07:26:00,
2013-05-22 03:31:00,65.9,62.6,29.83,WNW,292,0.0,0.0,89,0.00,,---,0.00,VWS V14.01,2013-05-22 07:31:00,
2013-05-22 03:36:00,65.9,62.6,29.83,WNW,292,0.0,0.0,89,0.00,,---,0.00,VWS V14.01,2013-05-22 07:36:00,
2013-05-22 03:41:00,65.8,62.5,29.83,WNW,292,0.0,0.0,89,0.00,,---,0.00,VWS V14.01,2013-05-22 07:41:00,
2013-05-22 03:46:00,65.7,62.4,29.82,WNW,292,0.0,0.0,89,0.00,,---,0.00,VWS V14.01,2013-05-22 07:46:00,
2013-05-22 03:51:00,65.6,62.6,29.82,WNW,292,0.0,0.0,90,0.00,,---,0.00,VWS V14.01,2013-05-22 07:51:00,
2013-05-22 03:56:00,65.4,62.4,29.82,WNW,292,0.0,0.0,90,0.00,,---,0.00,VWS V14.01,2013-05-22 07:56:00,
2013-05-22 04:01:00,65.2,62.2,29.82,WNW,292,2.0,2.0,90,0.00,,---,0.00,VWS V14.01,2013-05-22 08:01:00,
2013-05-22 04:06:00,64.9,62.2,29.82,WNW,292,0.0,0.0,91,0.00,,---,0.00,VWS V14.01,2013-05-22 08:06:00,
2013-05-22 04:11:00,64.8,62.1,29.81,WNW,292,1.0,1.0,91,0.00,,---,0.00,VWS V14.01,2013-05-22 08:11:00,
2013-05-22 04:16:00,64.6,62.2,29.81,WNW,292,0.0,0.0,92,0.00,,---,0.00,VWS V14.01,2013-05-22 08:16:00,
2013-05-22 04:21:00,64.5,62.1,29.81,WNW,292,0.0,0.0,92,0.00,,---,0.00,VWS V14.01,2013-05-22 08:21:00,
2013-05-22 04:26:00,64.5,62.1,29.81,WNW,292,0.0,0.0,92,0.00,,---,0.00,VWS V14.01,2013-05-22 08:26:00,
2013-05-22 04:31:00,64.4,62.0,29.82,WNW,292,0.0,0.0,92,0.00,,---,0.00,VWS V14.01,2013-05-22 08:31:00,
2013-05-22 04:36:00,64.4,62.3,29.82,WNW,292,0.0,0.0,93,0.00,,---,0.00,VWS V14.01,2013-05-22 08:36:00,
2013-05-22 04:40:00,64.4,62.3,29.82,WNW,292,0.0,0.0,93,0.00,,---,0.00,VWS V14.01,2013-05-22 08:40:00,
2013-05-22 04:45:00,64.4,62.0,29.82,WNW,292,0.0,0.0,92,0.00,,---,0.00,VWS V14.01,2013-05-22 08:45:00,
2013-05-22 04:50:00,64.4,62.0,29.82,WNW,292,0.0,1.0,92,0.00,,---,0.00,VWS V14.01,2013-05-22 08:50:00,
2013-05-22 04:55:00,64.4,62.0,29.83,WNW,292,0.0,0.0,92,0.00,,---,0.00,VWS V14.01,2013-05-22 08:55:00,
2013-05-22 05:00:00,64.4,62.0,29.83,WNW,292,0.0,0.0,92,0.00,,---,0.00,VWS V14.01,2013-05-22 09:00:00,
2013-05-22 05:05:00,64.4,62.0,29.83,WNW,292,0.0,0.0,92,0.00,,---,0.00,VWS V14.01,2013-05-22 09:05:00,
2013-05-22 05:10:00,64.4,62.0,29.83,WNW,292,0.0,0.0,92,0.00,,---,0.00,VWS V14.01,2013-05-22 09:10:00,
2013-05-22 05:15:00,64.4,62.3,29.83,WNW,292,0.0,0.0,93,0.00,,---,0.00,VWS V14.01,2013-05-22 09:15:00,
2013-05-22 05:20:00,64.3,62.2,29.83,WNW,292,0.0,0.0,93,0.00,,---,0.00,VWS V14.01,2013-05-22 09:20:00,
2013-05-22 05:25:00,64.2,62.1,29.83,WNW,292,0.0,0.0,93,0.00,,---,0.00,VWS V14.01,2013-05-22 09:25:00,
2013-05-22 05:30:00,64.1,62.0,29.83,WNW,292,0.0,1.0,93,0.00,,---,0.00,VWS V14.01,2013-05-22 09:30:00,
2013-05-22 05:35:00,64.0,61.9,29.83,WNW,292,0.0,1.0,93,0.00,,---,0.00,VWS V14.01,2013-05-22 09:35:00,
2013-05-22 05:40:00,63.9,61.8,29.83,WNW,292,0.0,0.0,93,0.00,,---,0.00,VWS V14.01,2013-05-22 09:40:00,
2013-05-22 05:45:00,63.9,61.8,29.83,WNW,292,0.0,0.0,93,0.00,,---,0.00,VWS V14.01,2013-05-22 09:45:00,
2013-05-22 05:50:00,63.8,61.7,29.83,WNW,292,0.0,0.0,93,0.00,,---,0.00,VWS V14.01,2013-05-22 09:50:00,
2013-05-22 05:55:00,63.7,61.6,29.83,WNW,292,0.0,0.0,93,0.00,,---,0.00,VWS V14.01,2013-05-22 09:55:00,
2013-05-22 06:00:00,63.6,61.5,29.83,WNW,292,0.0,1.0,93,0.00,,---,0.00,VWS V14.01,2013-05-22 10:00:00,
2013-05-22 06:05:00,63.5,61.4,29.83,WNW,292,0.0,0.0,93,0.00,,---,0.00,VWS V14.01,2013-05-22 10:05:00,
2013-05-22 06:10:00,63.5,61.8,29.84,WNW,292,0.0,1.0,94,0.00,,---,0.00,VWS V14.01,2013-05-22 10:10:00,
2013-05-22 06:15:00,63.5,61.4,29.84,WNW,292,1.0,2.0,93,0.00,,---,0.00,VWS V14.01,2013-05-22 10:15:00,
2013-05-22 06:20:00,63.5,61.4,29.84,WNW,292,0.0,0.0,93,0.00,,---,0.00,VWS V14.01,2013-05-22 10:20:00,
2013-05-22 06:25:00,63.7,61.3,29.84,WNW,292,0.0,0.0,92,0.00,,---,0.00,VWS V14.01,2013-05-22 10:25:00,
2013-05-22 06:30:00,63.9,61.2,29.85,WNW,292,0.0,1.0,91,0.00,,---,0.00,VWS V14.01,2013-05-22 10:30:00,
2013-05-22 06:35:00,63.9,60.9,29.85,WNW,292,0.0,0.0,90,0.00,,---,0.00,VWS V14.01,2013-05-22 10:35:00,
2013-05-22 06:40:00,63.9,60.9,29.85,WNW,292,2.0,2.0,90,0.00,,---,0.00,VWS V14.01,2013-05-22 10:40:00,
2013-05-22 06:45:00,63.8,61.1,29.85,WNW,292,2.0,2.0,91,0.00,,---,0.00,VWS V14.01,2013-05-22 10:45:00,
2013-05-22 06:50:00,63.9,60.9,29.85,WNW,292,0.0,0.0,90,0.00,,---,0.00,VWS V14.01,2013-05-22 10:50:00,
2013-05-22 06:55:00,64.0,60.7,29.85,WNW,292,0.0,0.0,89,0.00,,---,0.00,VWS V14.01,2013-05-22 10:55:00,
2013-05-22 07:00:00,64.0,60.7,29.85,WNW,292,0.0,0.0,89,0.00,,---,0.00,VWS V14.01,2013-05-22 11:00:00,
2013-05-22 07:05:00,64.1,60.8,29.85,WNW,292,0.0,0.0,89,0.00,,---,0.00,VWS V14.01,2013-05-22 11:05:00,
2013-05-22 07:10:00,64.3,60.7,29.85,WNW,292,0.0,1.0,88,0.00,,---,0.00,VWS V14.01,2013-05-22 11:10:00,
2013-05-22 07:15:00,64.5,61.2,29.86,WNW,292,1.0,2.0,89,0.00,,---,0.00,VWS V14.01,2013-05-22 11:15:00,
2013-05-22 07:20:00,64.9,61.3,29.86,WNW,292,1.0,1.0,88,0.00,,---,0.00,VWS V14.01,2013-05-22 11:20:00,
2013-05-22 07:25:00,65.2,61.2,29.86,WNW,292,0.0,0.0,87,0.00,,---,0.00,VWS V14.01,2013-05-22 11:25:00,
2013-05-22 07:30:00,65.4,61.8,29.86,WNW,292,0.0,0.0,88,0.00,,---,0.00,VWS V14.01,2013-05-22 11:30:00,
2013-05-22 07:35:00,65.5,62.2,29.86,WNW,292,0.0,0.0,89,0.00,,---,0.00,VWS V14.01,2013-05-22 11:35:00,
2013-05-22 07:40:00,65.6,62.3,29.86,WNW,292,0.0,0.0,89,0.00,,---,0.00,VWS V14.01,2013-05-22 11:40:00,
2013-05-22 07:45:00,65.8,62.5,29.86,WNW,292,0.0,0.0,89,0.00,,---,0.00,VWS V14.01,2013-05-22 11:45:00,
2013-05-22 07:50:00,66.2,63.2,29.86,WNW,292,0.0,0.0,90,0.00,,---,0.00,VWS V14.01,2013-05-22 11:50:00,
2013-05-22 07:55:00,66.6,62.6,29.86,WNW,292,0.0,0.0,87,0.00,,---,0.00,VWS V14.01,2013-05-22 11:55:00,
2013-05-22 08:00:00,67.0,63.0,29.87,WNW,292,0.0,0.0,87,0.00,,---,0.00,VWS V14.01,2013-05-22 12:00:00,
2013-05-22 08:05:00,67.5,63.2,29.87,West,280,0.0,0.0,86,0.00,,---,0.00,VWS V14.01,2013-05-22 12:05:00,
2013-05-22 08:10:00,68.0,63.7,29.87,West,280,2.0,2.0,86,0.00,,---,0.00,VWS V14.01,2013-05-22 12:10:00,
2013-05-22 08:15:00,68.6,63.6,29.87,West,280,0.0,0.0,84,0.00,,---,0.00,VWS V14.01,2013-05-22 12:15:00,
2013-05-22 08:20:00,69.2,63.8,29.87,West,280,0.0,0.0,83,0.00,,---,0.00,VWS V14.01,2013-05-22 12:20:00,
2013-05-22 08:25:00,69.7,61.8,29.87,West,280,1.0,2.0,76,0.00,,---,0.00,VWS V14.01,2013-05-22 12:25:00,
2013-05-22 08:30:00,70.6,63.8,29.87,West,280,0.0,1.0,79,0.00,,---,0.00,VWS V14.01,2013-05-22 12:30:00,
2013-05-22 08:35:00,71.3,63.3,29.87,West,280,0.0,0.0,76,0.00,,---,0.00,VWS V14.01,2013-05-22 12:35:00,
2013-05-22 08:40:00,71.9,63.2,29.87,West,280,0.0,0.0,74,0.00,,---,0.00,VWS V14.01,2013-05-22 12:40:00,
2013-05-22 08:45:00,72.5,63.8,29.87,West,280,0.0,1.0,74,0.00,,---,0.00,VWS V14.01,2013-05-22 12:45:00,
2013-05-22 08:50:00,73.2,62.8,29.87,West,280,0.0,0.0,70,0.00,,---,0.00,VWS V14.01,2013-05-22 12:50:00,
2013-05-22 08:55:00,73.9,62.3,29.87,West,280,0.0,1.0,67,0.00,,---,0.00,VWS V14.01,2013-05-22 12:55:00,
2013-05-22 09:00:00,74.3,61.8,29.87,West,280,1.0,1.0,65,0.00,,---,0.00,VWS V14.01,2013-05-22 13:00:00,
2013-05-22 09:05:00,74.8,62.3,29.87,West,280,1.0,2.0,65,0.00,,---,0.00,VWS V14.01,2013-05-22 13:05:00,
2013-05-22 09:10:00,74.9,63.2,29.87,West,280,0.0,1.0,67,0.00,,---,0.00,VWS V14.01,2013-05-22 13:10:00,
2013-05-22 09:15:00,75.2,63.1,29.88,West,280,1.0,1.0,66,0.00,,---,0.00,VWS V14.01,2013-05-22 13:15:00,
2013-05-22 09:20:00,75.3,62.3,29.87,West,280,0.0,0.0,64,0.00,,---,0.00,VWS V14.01,2013-05-22 13:20:00,
2013-05-22 09:25:00,75.4,62.4,29.87,West,280,1.0,1.0,64,0.00,,---,0.00,VWS V14.01,2013-05-22 13:25:00,
2013-05-22 09:30:00,76.0,62.5,29.87,West,280,1.0,1.0,63,0.00,,---,0.00,VWS V14.01,2013-05-22 13:30:00,
2013-05-22 09:35:00,76.4,64.2,29.87,West,280,0.0,0.0,66,0.00,,---,0.00,VWS V14.01,2013-05-22 13:35:00,
2013-05-22 09:40:00,77.1,62.6,29.86,West,264,2.0,2.0,61,0.00,,---,0.00,VWS V14.01,2013-05-22 13:40:00,
2013-05-22 09:45:00,78.0,63.5,29.86,WSW,238,1.0,3.0,61,0.00,,---,0.00,VWS V14.01,2013-05-22 13:45:00,
2013-05-22 09:50:00,79.2,63.7,29.86,NW,310,1.0,1.0,59,0.00,,---,0.00,VWS V14.01,2013-05-22 13:50:00,
2013-05-22 09:55:00,80.0,61.9,29.86,WNW,297,2.0,2.0,54,0.00,,---,0.00,VWS V14.01,2013-05-22 13:55:00,
2013-05-22 10:00:00,80.4,65.7,29.86,WNW,296,1.0,2.0,61,0.00,,---,0.00,VWS V14.01,2013-05-22 14:00:00,
2013-05-22 10:05:00,81.4,63.7,29.86,NW,317,3.0,3.0,55,0.00,,---,0.00,VWS V14.01,2013-05-22 14:05:00,
2013-05-22 10:10:00,81.4,63.2,29.86,NW,318,3.0,3.0,54,0.00,,---,0.00,VWS V14.01,2013-05-22 14:10:00,
2013-05-22 10:15:00,81.3,65.1,29.86,WNW,296,3.0,3.0,58,0.00,,---,0.00,VWS V14.01,2013-05-22 14:15:00,
2013-05-22 10:20:00,81.7,65.0,29.86,WNW,302,2.0,3.0,57,0.00,,---,0.00,VWS V14.01,2013-05-22 14:20:00,
2013-05-22 10:25:00,81.9,63.1,29.86,NNW,340,2.0,2.0,53,0.00,,---,0.00,VWS V14.01,2013-05-22 14:25:00,
2013-05-22 10:30:00,82.1,63.3,29.86,NNW,338,2.0,3.0,53,0.00,,---,0.00,VWS V14.01,2013-05-22 14:30:00,
2013-05-22 10:35:00,82.1,62.2,29.86,West,279,2.0,7.0,51,0.00,,---,0.00,VWS V14.01,2013-05-22 14:35:00,
2013-05-22 10:40:00,81.9,63.1,29.86,West,281,3.0,5.0,53,0.00,,---,0.00,VWS V14.01,2013-05-22 14:40:00,
2013-05-22 10:45:00,82.5,65.8,29.86,WNW,295,2.0,5.0,57,0.00,,---,0.00,VWS V14.01,2013-05-22 14:45:00,
2013-05-22 10:50:00,82.8,62.8,29.86,NW,308,4.0,5.0,51,0.00,,---,0.00,VWS V14.01,2013-05-22 14:50:00,
2013-05-22 10:55:00,82.8,62.3,29.86,NNW,329,1.0,2.0,50,0.00,,---,0.00,VWS V14.01,2013-05-22 14:55:00,
2013-05-22 11:00:00,82.7,63.8,29.86,WNW,284,0.0,2.0,53,0.00,,---,0.00,VWS V14.01,2013-05-22 15:00:00,
2013-05-22 11:05:00,83.2,62.1,29.86,WSW,245,4.0,5.0,49,0.00,,---,0.00,VWS V14.01,2013-05-22 15:05:00,
2013-05-22 11:10:00,83.2,61.5,29.86,West,268,4.0,4.0,48,0.00,,---,0.00,VWS V14.01,2013-05-22 15:10:00,
2013-05-22 11:15:00,83.2,63.2,29.86,WNW,289,5.0,8.0,51,0.00,,---,0.00,VWS V14.01,2013-05-22 15:15:00,
2013-05-22 11:20:00,83.3,63.3,29.86,NW,314,5.0,5.0,51,0.00,,---,0.00,VWS V14.01,2013-05-22 15:20:00,
2013-05-22 11:25:00,83.0,63.0,29.86,West,280,4.0,5.0,51,0.00,,---,0.00,VWS V14.01,2013-05-22 15:25:00,
2013-05-22 11:30:00,82.6,63.2,29.86,West,259,2.0,3.0,52,0.00,,---,0.00,VWS V14.01,2013-05-22 15:30:00,
2013-05-22 11:35:00,82.2,61.7,29.86,WSW,239,4.0,6.0,50,0.00,,---,0.00,VWS V14.01,2013-05-22 15:35:00,
2013-05-22 11:40:00,81.6,61.7,29.86,NW,306,1.0,2.0,51,0.00,,---,0.00,VWS V14.01,2013-05-22 15:40:00,
2013-05-22 11:45:00,81.4,61.0,29.86,West,263,3.0,6.0,50,0.00,,---,0.00,VWS V14.01,2013-05-22 15:45:00,
2013-05-22 11:50:00,81.4,63.7,29.87,WNW,301,3.0,4.0,55,0.00,,---,0.00,VWS V14.01,2013-05-22 15:50:00,
2013-05-22 11:55:00,81.2,61.4,29.87,NE,41,0.0,2.0,51,0.00,,---,0.00,VWS V14.01,2013-05-22 15:55:00,
2013-05-22 12:00:00,81.4,63.2,29.87,WNW,294,7.0,7.0,54,0.00,,---,0.00,VWS V14.01,2013-05-22 16:00:00,
2013-05-22 12:05:00,82.0,62.7,29.86,WNW,283,4.0,7.0,52,0.00,,---,0.00,VWS V14.01,2013-05-22 16:05:00,
2013-05-22 12:10:00,82.7,62.8,29.87,WSW,247,5.0,6.0,51,0.00,,---,0.00,VWS V14.01,2013-05-22 16:10:00,
2013-05-22 12:15:00,82.6,64.3,29.86,SE,146,2.0,2.0,54,0.00,,---,0.00,VWS V14.01,2013-05-22 16:15:00,
2013-05-22 12:20:00,82.3,62.4,29.86,WNW,295,3.0,4.0,51,0.00,,---,0.00,VWS V14.01,2013-05-22 16:20:00,
2013-05-22 12:25:00,81.9,63.1,29.86,NW,304,4.0,5.0,53,0.00,,---,0.00,VWS V14.01,2013-05-22 16:25:00,
2013-05-22 12:30:00,81.7,63.5,29.86,NW,313,5.0,6.0,54,0.00,,---,0.00,VWS V14.01,2013-05-22 16:30:00,
2013-05-22 12:35:00,81.7,65.0,29.86,WNW,300,2.0,2.0,57,0.00,,---,0.00,VWS V14.01,2013-05-22 16:35:00,
2013-05-22 12:40:00,81.7,63.5,29.86,SSW,198,2.0,3.0,54,0.00,,---,0.00,VWS V14.01,2013-05-22 16:40:00,
2013-05-22 12:45:00,81.8,65.1,29.85,SSW,196,0.0,0.0,57,0.00,,---,0.00,VWS V14.01,2013-05-22 16:45:00,
2013-05-22 12:50:00,82.0,65.3,29.85,SSW,195,5.0,5.0,57,0.00,,---,0.00,VWS V14.01,2013-05-22 16:50:00,
2013-05-22 12:55:00,82.5,66.2,29.85,WSW,246,1.0,3.0,58,0.00,,---,0.00,VWS V14.01,2013-05-22 16:55:00,
2013-05-22 13:00:00,83.0,65.2,29.84,South,188,5.0,5.0,55,0.00,,---,0.00,VWS V14.01,2013-05-22 17:00:00,
2013-05-22 13:05:00,83.5,65.7,29.84,South,189,5.0,5.0,55,0.00,,---,0.00,VWS V14.01,2013-05-22 17:05:00,
2013-05-22 13:10:00,83.5,64.6,29.83,North,5,1.0,2.0,53,0.00,,---,0.00,VWS V14.01,2013-05-22 17:10:00,
2013-05-22 13:15:00,83.0,64.7,29.83,NW,323,2.0,3.0,54,0.00,,---,0.00,VWS V14.01,2013-05-22 17:15:00,
2013-05-22 13:20:00,83.3,65.5,29.83,South,181,3.0,5.0,55,0.00,,---,0.00,VWS V14.01,2013-05-22 17:20:00,
2013-05-22 13:25:00,83.7,64.8,29.83,WSW,238,1.0,2.0,53,0.00,,---,0.00,VWS V14.01,2013-05-22 17:25:00,
2013-05-22 13:30:00,83.8,63.8,29.82,SSE,165,2.0,2.0,51,0.00,,---,0.00,VWS V14.01,2013-05-22 17:30:00,
2013-05-22 13:35:00,83.6,64.1,29.82,South,171,6.0,6.0,52,0.00,,---,0.00,VWS V14.01,2013-05-22 17:35:00,
2013-05-22 13:40:00,83.9,64.9,29.82,WSW,253,2.0,2.0,53,0.00,,---,0.00,VWS V14.01,2013-05-22 17:40:00,
2013-05-22 13:45:00,84.6,63.9,29.82,NW,317,2.0,2.0,50,0.00,,---,0.00,VWS V14.01,2013-05-22 17:45:00,
2013-05-22 13:50:00,84.8,64.7,29.82,WNW,288,5.0,5.0,51,0.00,,---,0.00,VWS V14.01,2013-05-22 17:50:00,
2013-05-22 13:55:00,85.1,64.4,29.82,West,265,3.0,4.0,50,0.00,,---,0.00,VWS V14.01,2013-05-22 17:55:00,
2013-05-22 14:00:00,85.0,64.3,29.81,ENE,64,1.0,2.0,50,0.00,,---,0.00,VWS V14.01,2013-05-22 18:00:00,
2013-05-22 14:05:00,84.8,66.3,29.81,NNW,333,2.0,5.0,54,0.00,,---,0.00,VWS V14.01,2013-05-22 18:05:00,
2013-05-22 14:10:00,84.7,66.2,29.81,WNW,298,2.0,3.0,54,0.00,,---,0.00,VWS V14.01,2013-05-22 18:10:00,
2013-05-22 14:15:00,85.0,65.4,29.80,West,281,0.0,2.0,52,0.00,,---,0.00,VWS V14.01,2013-05-22 18:15:00,
2013-05-22 14:20:00,85.3,64.6,29.80,NNE,14,0.0,0.0,50,0.00,,---,0.00,VWS V14.01,2013-05-22 18:20:00,
2013-05-22 14:25:00,85.5,68.0,29.80,SW,225,0.0,1.0,56,0.00,,---,0.00,VWS V14.01,2013-05-22 18:25:00,
2013-05-22 14:30:00,85.7,66.6,29.80,WSW,250,3.0,4.0,53,0.00,,---,0.00,VWS V14.01,2013-05-22 18:30:00,
2013-05-22 14:35:00,85.3,67.3,29.80,WNW,291,4.0,4.0,55,0.00,,---,0.00,VWS V14.01,2013-05-22 18:35:00,
2013-05-22 14:40:00,85.0,65.4,29.80,West,259,2.0,4.0,52,0.00,,---,0.00,VWS V14.01,2013-05-22 18:40:00,
2013-05-22 14:45:00,84.7,66.2,29.81,WNW,293,3.0,4.0,54,0.00,,---,0.00,VWS V14.01,2013-05-22 18:45:00,
2013-05-22 14:50:00,84.8,63.5,29.81,West,269,6.0,7.0,49,0.00,,---,0.00,VWS V14.01,2013-05-22 18:50:00,
2013-05-22 14:55:00,85.0,62.5,29.81,NW,319,4.0,9.0,47,0.00,,---,0.00,VWS V14.01,2013-05-22 18:55:00,
2013-05-22 15:00:00,85.4,64.1,29.80,North,360,5.0,6.0,49,0.00,,---,0.00,VWS V14.01,2013-05-22 19:00:00,
2013-05-22 15:05:00,85.5,63.6,29.80,WNW,282,6.0,6.0,48,0.00,,---,0.00,VWS V14.01,2013-05-22 19:05:00,
2013-05-22 15:10:00,85.6,63.7,29.80,WSW,255,1.0,1.0,48,0.00,,---,0.00,VWS V14.01,2013-05-22 19:10:00,
2013-05-22 15:15:00,85.7,64.9,29.80,SW,219,1.0,5.0,50,0.00,,---,0.00,VWS V14.01,2013-05-22 19:15:00,
2013-05-22 15:20:00,85.8,63.9,29.80,West,267,4.0,6.0,48,0.00,,---,0.00,VWS V14.01,2013-05-22 19:20:00,
2013-05-22 15:25:00,85.8,64.4,29.79,WNW,290,3.0,3.0,49,0.00,,---,0.00,VWS V14.01,2013-05-22 19:25:00,
2013-05-22 15:30:00,86.1,64.7,29.79,SW,230,2.0,4.0,49,0.00,,---,0.00,VWS V14.01,2013-05-22 19:30:00,
2013-05-22 15:35:00,86.3,63.7,29.78,WSW,256,4.0,6.0,47,0.00,,---,0.00,VWS V14.01,2013-05-22 19:35:00,
2013-05-22 15:40:00,86.0,63.4,29.78,North,9,1.0,3.0,47,0.00,,---,0.00,VWS V14.01,2013-05-22 19:40:00,
2013-05-22 15:45:00,85.1,63.8,29.78,NNW,341,1.0,2.0,49,0.00,,---,0.00,VWS V14.01,2013-05-22 19:45:00,
2013-05-22 15:50:00,83.5,65.7,29.82,SW,217,7.0,16.0,55,0.01,,---,0.01,VWS V14.01,2013-05-22 19:50:00,
2013-05-22 15:55:00,77.0,63.5,29.82,South,188,5.0,7.0,63,0.11,,---,0.11,VWS V14.01,2013-05-22 19:55:00,
2013-05-22 16:00:00,72.0,61.7,29.82,SE,141,6.0,8.0,70,0.17,,---,0.17,VWS V14.01,2013-05-22 20:00:00,
2013-05-22 16:05:00,68.9,62.8,29.82,ESE,123,4.0,7.0,81,0.19,,---,0.19,VWS V14.01,2013-05-22 20:05:00,
2013-05-22 16:10:00,67.5,63.5,29.81,SE,138,5.0,9.0,87,0.19,,---,0.19,VWS V14.01,2013-05-22 20:10:00,
2013-05-22 16:15:00,67.2,63.5,29.81,ESE,104,5.0,8.0,88,0.19,,---,0.19,VWS V14.01,2013-05-22 20:15:00,
2013-05-22 16:20:00,67.4,63.7,29.81,SE,141,8.0,8.0,88,0.19,,---,0.19,VWS V14.01,2013-05-22 20:20:00,
2013-05-22 16:25:00,67.9,62.2,29.81,SE,130,4.0,7.0,82,0.19,,---,0.19,VWS V14.01,2013-05-22 20:25:00,
2013-05-22 16:30:00,68.5,62.8,29.82,SSE,164,5.0,7.0,82,0.19,,---,0.19,VWS V14.01,2013-05-22 20:30:00,
2013-05-22 16:35:00,68.6,61.8,29.82,SSE,147,5.0,8.0,79,0.19,,---,0.19,VWS V14.01,2013-05-22 20:35:00,
2013-05-22 16:40:00,69.0,64.0,29.82,SE,139,6.0,6.0,84,0.19,,---,0.19,VWS V14.01,2013-05-22 20:40:00,
2013-05-22 16:45:00,68.8,64.1,29.82,SSE,159,1.0,3.0,85,0.19,,---,0.19,VWS V14.01,2013-05-22 20:45:00,
2013-05-22 16:50:00,69.3,63.2,29.82,SE,134,2.0,3.0,81,0.18,,---,0.19,VWS V14.01,2013-05-22 20:50:00,
2013-05-22 16:55:00,69.8,63.4,29.82,SE,138,4.0,4.0,80,0.08,,---,0.19,VWS V14.01,2013-05-22 20:55:00,
2013-05-22 17:00:00,70.0,63.2,29.81,South,169,4.0,4.0,79,0.02,,---,0.19,VWS V14.01,2013-05-22 21:00:00,
2013-05-22 17:05:00,70.3,63.8,29.81,South,182,0.0,0.0,80,0.00,,---,0.19,VWS V14.01,2013-05-22 21:05:00,
2013-05-22 17:10:00,70.6,65.2,29.81,North,360,0.0,1.0,83,0.00,,---,0.19,VWS V14.01,2013-05-22 21:10:00,
2013-05-22 17:15:00,70.9,66.5,29.80,North,355,0.0,0.0,86,0.00,,---,0.19,VWS V14.01,2013-05-22 21:15:00,
2013-05-22 17:20:00,71.3,66.6,29.80,North,355,0.0,0.0,85,0.00,,---,0.19,VWS V14.01,2013-05-22 21:20:00,
2013-05-22 17:25:00,72.0,66.6,29.80,North,355,0.0,1.0,83,0.00,,---,0.19,VWS V14.01,2013-05-22 21:25:00,
2013-05-22 17:30:00,72.5,65.3,29.80,North,355,1.0,1.0,78,0.00,,---,0.19,VWS V14.01,2013-05-22 21:30:00,
2013-05-22 17:35:00,73.1,65.5,29.81,North,360,0.0,0.0,77,0.00,,---,0.19,VWS V14.01,2013-05-22 21:35:00,
2013-05-22 17:40:00,73.6,66.7,29.81,North,360,1.0,2.0,79,0.00,,---,0.19,VWS V14.01,2013-05-22 21:40:00,
2013-05-22 17:45:00,73.5,67.0,29.81,North,360,0.0,0.0,80,0.00,,---,0.19,VWS V14.01,2013-05-22 21:45:00,
2013-05-22 17:50:00,73.3,66.8,29.81,North,360,0.0,0.0,80,0.00,,---,0.19,VWS V14.01,2013-05-22 21:50:00,
2013-05-22 17:55:00,73.2,65.9,29.81,North,360,0.0,0.0,78,0.00,,---,0.19,VWS V14.01,2013-05-22 21:55:00,
2013-05-22 18:00:00,73.4,67.9,29.81,North,355,1.0,1.0,83,0.00,,---,0.19,VWS V14.01,2013-05-22 22:00:00,
2013-05-22 18:05:00,73.0,67.5,29.81,North,355,0.0,0.0,83,0.00,,---,0.19,VWS V14.01,2013-05-22 22:05:00,
2013-05-22 18:10:00,73.0,67.9,29.81,North,355,0.0,0.0,84,0.00,,---,0.19,VWS V14.01,2013-05-22 22:10:00,
2013-05-22 18:15:00,73.0,66.1,29.82,East,88,1.0,2.0,79,0.00,,---,0.19,VWS V14.01,2013-05-22 22:15:00,
2013-05-22 18:20:00,73.2,65.6,29.82,East,88,0.0,0.0,77,0.00,,---,0.19,VWS V14.01,2013-05-22 22:20:00,
2013-05-22 18:25:00,73.4,66.1,29.82,NNW,342,3.0,3.0,78,0.00,,---,0.19,VWS V14.01,2013-05-22 22:25:00,
2013-05-22 18:30:00,73.4,67.6,29.82,NNE,23,1.0,1.0,82,0.00,,---,0.19,VWS V14.01,2013-05-22 22:30:00,
2013-05-22 18:35:00,72.8,67.0,29.82,NE,35,1.0,1.0,82,0.00,,---,0.19,VWS V14.01,2013-05-22 22:35:00,
2013-05-22 18:40:00,72.6,67.8,29.82,North,355,2.0,2.0,85,0.00,,---,0.19,VWS V14.01,2013-05-22 22:40:00,
2013-05-22 18:45:00,72.5,67.4,29.82,North,355,1.0,1.0,84,0.00,,---,0.19,VWS V14.01,2013-05-22 22:45:00,
2013-05-22 18:50:00,72.2,66.8,29.81,ESE,114,1.0,1.0,83,0.00,,---,0.19,VWS V14.01,2013-05-22 22:50:00,
2013-05-22 18:55:00,71.9,66.5,29.81,ESE,114,0.0,1.0,83,0.00,,---,0.19,VWS V14.01,2013-05-22 22:55:00,
2013-05-22 19:00:00,71.7,66.9,29.81,ESE,113,1.0,2.0,85,0.00,,---,0.19,VWS V14.01,2013-05-22 23:00:00,
2013-05-22 19:05:00,71.6,65.5,29.80,East,100,2.0,2.0,81,0.00,,---,0.19,VWS V14.01,2013-05-22 23:05:00,
2013-05-22 19:10:00,71.7,64.8,29.81,ESE,104,4.0,4.0,79,0.00,,---,0.19,VWS V14.01,2013-05-22 23:10:00,
2013-05-22 19:15:00,72.2,66.1,29.81,SE,146,1.0,1.0,81,0.00,,---,0.19,VWS V14.01,2013-05-22 23:15:00,
2013-05-22 19:20:00,72.0,66.2,29.82,NNE,17,0.0,0.0,82,0.00,,---,0.19,VWS V14.01,2013-05-22 23:20:00,
2013-05-22 19:25:00,71.7,66.3,29.81,NNE,17,1.0,1.0,83,0.00,,---,0.19,VWS V14.01,2013-05-22 23:25:00,
2013-05-22 19:30:00,71.4,66.7,29.81,ESE,121,3.0,3.0,85,0.00,,---,0.19,VWS V14.01,2013-05-22 23:30:00,
2013-05-22 19:35:00,71.0,66.6,29.81,SSE,157,3.0,3.0,86,0.00,,---,0.19,VWS V14.01,2013-05-22 23:35:00,
2013-05-22 19:40:00,70.5,65.8,29.82,SSE,164,3.0,4.0,85,0.00,,---,0.19,VWS V14.01,2013-05-22 23:40:00,
2013-05-22 19:45:00,70.4,66.0,29.82,SE,142,1.0,2.0,86,0.00,,---,0.19,VWS V14.01,2013-05-22 23:45:00,
2013-05-22 19:50:00,70.3,65.6,29.82,SSE,158,1.0,2.0,85,0.00,,---,0.19,VWS V14.01,2013-05-22 23:50:00,
2013-05-22 19:55:00,70.3,66.2,29.83,SSE,158,0.0,0.0,87,0.00,,---,0.19,VWS V14.01,2013-05-22 23:55:00,
2013-05-22 20:00:00,70.2,65.8,29.85,NW,307,2.0,3.0,86,0.00,,---,0.19,VWS V14.01,2013-05-23 00:00:00,
2013-05-22 20:05:00,70.2,66.5,29.86,West,276,0.0,1.0,88,0.00,,---,0.19,VWS V14.01,2013-05-23 00:05:00,
2013-05-22 20:10:00,70.0,66.6,29.86,West,276,2.0,2.0,89,0.03,,---,0.22,VWS V14.01,2013-05-23 00:10:00,
2013-05-22 20:15:00,69.7,66.6,29.88,West,276,3.0,3.0,90,0.07,,---,0.26,VWS V14.01,2013-05-23 00:15:00,
2013-05-22 20:20:00,69.0,66.6,29.90,WNW,289,3.0,3.0,92,0.25,,---,0.44,VWS V14.01,2013-05-23 00:20:00,
2013-05-22 20:25:00,67.9,64.9,29.89,SSW,204,2.0,4.0,90,0.48,,---,0.67,VWS V14.01,2013-05-23 00:25:00,
2013-05-22 20:30:00,66.8,63.8,29.89,North,355,2.0,3.0,90,0.59,,---,0.78,VWS V14.01,2013-05-23 00:30:00,
2013-05-22 20:35:00,66.1,63.7,29.88,NNW,328,1.0,1.0,92,0.64,,---,0.83,VWS V14.01,2013-05-23 00:35:00,
2013-05-22 20:40:00,65.8,63.7,29.87,ENE,66,2.0,2.0,93,0.66,,---,0.85,VWS V14.01,2013-05-23 00:40:00,
2013-05-22 20:45:00,65.4,63.6,29.87,NE,56,0.0,1.0,94,0.68,,---,0.87,VWS V14.01,2013-05-23 00:45:00,
2013-05-22 20:50:00,65.2,63.7,29.86,NNE,19,0.0,0.0,95,0.69,,---,0.88,VWS V14.01,2013-05-23 00:50:00,
2013-05-22 20:55:00,65.1,63.6,29.86,NNE,19,0.0,0.0,95,0.69,,---,0.88,VWS V14.01,2013-05-23 00:55:00,
2013-05-22 21:00:00,65.0,63.5,29.86,NNE,19,0.0,0.0,95,0.69,,---,0.88,VWS V14.01,2013-05-23 01:00:00,
2013-05-22 21:05:00,64.9,63.4,29.86,NNE,19,0.0,0.0,95,0.69,,---,0.88,VWS V14.01,2013-05-23 01:05:00,
2013-05-22 21:10:00,64.7,63.2,29.85,NNE,19,0.0,0.0,95,0.67,,---,0.88,VWS V14.01,2013-05-23 01:10:00,
2013-05-22 21:15:00,64.7,63.5,29.85,NNE,19,0.0,0.0,96,0.62,,---,0.88,VWS V14.01,2013-05-23 01:15:00,
2013-05-22 21:20:00,64.7,63.5,29.85,NNE,19,0.0,0.0,96,0.44,,---,0.88,VWS V14.01,2013-05-23 01:20:00,
2013-05-22 21:25:00,64.6,63.4,29.85,NNE,19,0.0,0.0,96,0.21,,---,0.88,VWS V14.01,2013-05-23 01:25:00,
2013-05-22 21:30:00,64.6,63.4,29.85,NNE,19,2.0,2.0,96,0.11,,---,0.88,VWS V14.01,2013-05-23 01:30:00,
2013-05-22 21:35:00,64.5,63.3,29.84,SSE,159,2.0,3.0,96,0.06,,---,0.89,VWS V14.01,2013-05-23 01:35:00,
2013-05-22 21:40:00,64.5,63.6,29.84,SSE,159,1.0,1.0,97,0.04,,---,0.89,VWS V14.01,2013-05-23 01:40:00,
2013-05-22 21:45:00,64.3,63.1,29.84,SSE,159,0.0,0.0,96,0.02,,---,0.89,VWS V14.01,2013-05-23 01:45:00,
2013-05-22 21:50:00,64.2,63.0,29.84,SSE,159,0.0,1.0,96,0.01,,---,0.89,VWS V14.01,2013-05-23 01:50:00,
2013-05-22 21:55:00,64.2,63.3,29.84,SSE,159,0.0,0.0,97,0.01,,---,0.89,VWS V14.01,2013-05-23 01:55:00,
2013-05-22 22:00:00,64.2,63.3,29.84,SSE,159,0.0,0.0,97,0.01,,---,0.89,VWS V14.01,2013-05-23 02:00:00,
2013-05-22 22:05:00,64.2,63.3,29.84,SSE,159,0.0,0.0,97,0.01,,---,0.89,VWS V14.01,2013-05-23 02:05:00,
2013-05-22 22:10:00,64.2,63.3,29.84,ESE,112,2.0,2.0,97,0.01,,---,0.89,VWS V14.01,2013-05-23 02:10:00,
2013-05-22 22:15:00,64.2,63.3,29.85,ESE,117,1.0,1.0,97,0.01,,---,0.89,VWS V14.01,2013-05-23 02:15:00,
2013-05-22 22:20:00,64.1,63.2,29.85,ESE,117,1.0,2.0,97,0.01,,---,0.89,VWS V14.01,2013-05-23 02:20:00,
2013-05-22 22:25:00,64.0,63.1,29.85,SE,139,0.0,1.0,97,0.01,,---,0.89,VWS V14.01,2013-05-23 02:25:00,
2013-05-22 22:30:00,64.0,63.4,29.85,SE,138,0.0,0.0,98,0.01,,---,0.89,VWS V14.01,2013-05-23 02:30:00,
2013-05-22 22:35:00,63.9,63.3,29.85,ESE,113,2.0,2.0,98,0.00,,---,0.89,VWS V14.01,2013-05-23 02:35:00,
2013-05-22 22:40:00,63.6,62.7,29.85,SW,225,2.0,2.0,97,0.00,,---,0.89,VWS V14.01,2013-05-23 02:40:00,
2013-05-22 22:45:00,63.5,62.6,29.85,SW,221,3.0,3.0,97,0.00,,---,0.89,VWS V14.01,2013-05-23 02:45:00,
2013-05-22 22:50:00,63.5,62.6,29.85,NW,319,3.0,3.0,97,0.00,,---,0.89,VWS V14.01,2013-05-23 02:50:00,
2013-05-22 22:55:00,63.6,62.7,29.85,NW,319,0.0,0.0,97,0.00,,---,0.89,VWS V14.01,2013-05-23 02:55:00,
2013-05-22 23:00:00,63.5,62.6,29.85,NW,319,1.0,1.0,97,0.00,,---,0.89,VWS V14.01,2013-05-23 03:00:00,
2013-05-22 23:05:00,63.4,62.5,29.85,South,171,0.0,1.0,97,0.00,,---,0.89,VWS V14.01,2013-05-23 03:05:00,
2013-05-22 23:10:00,63.3,62.4,29.85,South,171,0.0,1.0,97,0.00,,---,0.89,VWS V14.01,2013-05-23 03:10:00,
2013-05-22 23:15:00,63.2,62.3,29.85,South,171,0.0,0.0,97,0.00,,---,0.89,VWS V14.01,2013-05-23 03:15:00,
2013-05-22 23:20:00,63.2,62.3,29.85,South,171,1.0,1.0,97,0.00,,---,0.89,VWS V14.01,2013-05-23 03:20:00,
2013-05-22 23:25:00,63.1,62.2,29.85,South,171,0.0,0.0,97,0.00,,---,0.89,VWS V14.01,2013-05-23 03:25:00,
2013-05-22 23:30:00,63.0,62.1,29.85,South,171,0.0,0.0,97,0.00,,---,0.89,VWS V14.01,2013-05-23 03:30:00,
2013-05-22 23:35:00,63.0,62.1,29.85,South,171,0.0,0.0,97,0.00,,---,0.89,VWS V14.01,2013-05-23 03:35:00,
2013-05-22 23:40:00,62.9,62.0,29.85,South,171,0.0,0.0,97,0.00,,---,0.89,VWS V14.01,2013-05-23 03:40:00,
2013-05-22 23:45:00,62.9,62.0,29.85,South,171,0.0,0.0,97,0.00,,---,0.89,VWS V14.01,2013-05-23 03:45:00,
2013-05-22 23:50:00,62.9,62.3,29.84,South,171,0.0,0.0,98,0.00,,---,0.89,VWS V14.01,2013-05-23 03:50:00,
2013-05-22 23:55:00,63.0,62.4,29.84,East,87,2.0,2.0,98,0.00,,---,0.89,VWS V14.01,2013-05-23 03:55:00,